New York, New York
Traffic Map
Current Weather Conditions
New York, New York
Overcast
Overcast
40°
Feels Like: 37°
Wind Chill: 37° Ceiling: 5500
Heat Index: 40° Visibility: 10mi
Dew Point: 26° Wind: 5mph
Humidity: 58% Direction: ° ()
Pressure: 30.28in Gusts: 0mph
Raw Report DataKNYC 170651Z AUTO VRB04KT 10SM OVC055 04/M03 A3028 RMK AO2 SLP244 T00441033
Traffic Incident Summary
Active as of:
Severity:
Category:
InformationThere was an issue retrieving the traffic information for this location. Please try a different location or try again shortly.
Advertisements
Track Severe Weather on mobile